Teretulemast minu uuele ilmaprognooside lehele
Praegu on leht veel arendamise järgus: tõlked, linnade lisamine, menüüde korrastamine jne.
Endine leht vt. menüüs! / Andke teada probleemidest(nt. koha valik - kas töötab jne.) menüüs: Muu kraam - Saada kiri.



Puudub vajadus erihoiatuste järele    Hoiatusi ei ole
/home/edgarnuum/domains/hotserv.eq.ee/public_html/nautical/weatherpro/metar/metarDisplay.php

Nearby METAR Reports

   
EEKE - Kuressaare, Estonia
Distance from station: SE 3 km
Uuendatud: 23-05-2022 16:50
Clear  
Clear  
   Tuul: SSE 3.6 m/s
Tuul: SSE 3.6 m/s
Temperatuur: 14°C
Kastepunkt: -3°C
Niiskus: 31%
Baromeeter: 1013 hPa
Nähtavus: More than 10 km
Cloud details: Clear m
EEKE 231350Z 15007KT CAVOK 14/M03 Q1013
EEKA - Kardla, Estonia
Distance from station: NNE 84 km
Uuendatud: 23-05-2022 16:50
Clear  
Clear  
   Tuul: North 3.6 m/s
Tuul: North 3.6 m/s
Temperatuur: 13°C
Kastepunkt: 4°C
Niiskus: 55%
Baromeeter: 1013 hPa
Nähtavus: More than 10 km
Cloud details: Clear m
EEKA 231350Z 01007KT CAVOK 13/04 Q1013
EEEI - Harjumaa Amari, Estonia
Distance from station: NE 151 km
Uuendatud: 23-05-2022 16:50
Clear  
Clear  
   Tuul: NW 4.1 m/s
Tuul: NW 4.1 m/s
Temperatuur: 17°C
Kastepunkt: -2°C
Niiskus: 27%
Baromeeter: 1013 hPa
Nähtavus: More than 10 km
Cloud details: Clear m
EEEI 231350Z 31008KT 280V350 CAVOK 17/M02 Q1013 NOSIG
EETN - Tallinn L. Meri, Estonia
Distance from station: NE 187 km
Uuendatud: 23-05-2022 16:50
Clear  
Clear  
   Tuul: NW 4.1 m/s
Tuul: NW 4.1 m/s
Temperatuur: 17°C
Kastepunkt: 0°C
Niiskus: 32%
Baromeeter: 1013 hPa
Nähtavus: More than 10 km
Cloud details: Clear m
EETN 231350Z 32008KT CAVOK 17/M00 Q1013 NOSIG
EETU - Tartu, Estonia
Distance from station: E 245 km
Uuendatud: 23-05-2022 16:50
Few Clouds  
Few Clouds  
   Tuul: NNW 3.6 m/s
Tuul: NNW 3.6 m/s
Temperatuur: 19°C
Kastepunkt: 3°C
Niiskus: 35%
Baromeeter: 1011 hPa
Pilvisus: Few Clouds
Nähtavus: More than 10 km
Cloud details: Few Clouds 1463 m
EETU 231350Z 34007KT 270V020 9999 FEW048 19/03 Q1011
 

Script developed by  Saratoga-weather.org Adapted for the template by  Weerstation Leuven